sensor_id;sensor_type;location;lat;lon;timestamp;pressure;altitude;pressure_sealevel;temperature;humidity
30618;BME280;17384;51.214;9.202;2023-04-26T00:00:13;98788.81;;;0.18;84.53
30618;BME280;17384;51.214;9.202;2023-04-26T00:02:38;98791.28;;;0.02;84.49
30618;BME280;17384;51.214;9.202;2023-04-26T00:05:05;98781.00;;;0.07;84.56
30618;BME280;17384;51.214;9.202;2023-04-26T00:07:31;98775.47;;;0.00;84.81
30618;BME280;17384;51.214;9.202;2023-04-26T00:09:58;98783.22;;;-0.07;85.39
30618;BME280;17384;51.214;9.202;2023-04-26T00:12:23;98794.72;;;-0.06;85.29
30618;BME280;17384;51.214;9.202;2023-04-26T00:14:49;98784.34;;;-0.09;85.82
30618;BME280;17384;51.214;9.202;2023-04-26T00:17:14;98795.59;;;-0.15;86.04
30618;BME280;17384;51.214;9.202;2023-04-26T00:19:40;98795.19;;;-0.20;86.16
30618;BME280;17384;51.214;9.202;2023-04-26T00:22:05;98792.53;;;-0.20;86.36
30618;BME280;17384;51.214;9.202;2023-04-26T00:24:32;98792.31;;;-0.37;86.35
30618;BME280;17384;51.214;9.202;2023-04-26T00:26:58;98806.06;;;-0.31;86.51
30618;BME280;17384;51.214;9.202;2023-04-26T00:29:24;98793.03;;;-0.35;86.27
30618;BME280;17384;51.214;9.202;2023-04-26T00:31:50;98799.63;;;-0.39;86.11
30618;BME280;17384;51.214;9.202;2023-04-26T00:34:16;98800.91;;;-0.43;86.04
30618;BME280;17384;51.214;9.202;2023-04-26T00:36:41;98798.59;;;-0.55;85.46
30618;BME280;17384;51.214;9.202;2023-04-26T00:39:07;98790.91;;;-0.68;86.07
30618;BME280;17384;51.214;9.202;2023-04-26T00:41:33;98800.56;;;-0.67;86.03
30618;BME280;17384;51.214;9.202;2023-04-26T00:43:59;98803.09;;;-0.65;86.25
30618;BME280;17384;51.214;9.202;2023-04-26T00:46:25;98801.63;;;-0.50;85.79
30618;BME280;17384;51.214;9.202;2023-04-26T00:48:53;98791.44;;;-0.64;86.07
30618;BME280;17384;51.214;9.202;2023-04-26T00:51:19;98800.44;;;-0.65;85.64
30618;BME280;17384;51.214;9.202;2023-04-26T00:53:44;98798.91;;;-0.78;85.91
30618;BME280;17384;51.214;9.202;2023-04-26T00:56:11;98809.47;;;-0.86;86.61
30618;BME280;17384;51.214;9.202;2023-04-26T00:58:37;98797.13;;;-1.06;86.85
30618;BME280;17384;51.214;9.202;2023-04-26T01:01:02;98800.94;;;-1.18;87.41
30618;BME280;17384;51.214;9.202;2023-04-26T01:03:28;98803.47;;;-1.17;87.76
30618;BME280;17384;51.214;9.202;2023-04-26T01:05:54;98783.44;;;-1.11;87.89
30618;BME280;17384;51.214;9.202;2023-04-26T01:08:20;98790.31;;;-1.28;88.13
30618;BME280;17384;51.214;9.202;2023-04-26T01:10:49;98795.34;;;-1.25;88.02
30618;BME280;17384;51.214;9.202;2023-04-26T01:13:15;98788.06;;;-1.23;87.88
30618;BME280;17384;51.214;9.202;2023-04-26T01:15:44;98796.31;;;-1.26;87.92
30618;BME280;17384;51.214;9.202;2023-04-26T01:18:10;98799.69;;;-1.24;87.85
30618;BME280;17384;51.214;9.202;2023-04-26T01:20:36;98788.66;;;-1.39;88.02
30618;BME280;17384;51.214;9.202;2023-04-26T01:23:02;98795.63;;;-1.47;88.62
30618;BME280;17384;51.214;9.202;2023-04-26T01:25:27;98800.97;;;-1.47;88.74
30618;BME280;17384;51.214;9.202;2023-04-26T01:27:53;98790.84;;;-1.34;88.42
30618;BME280;17384;51.214;9.202;2023-04-26T01:30:19;98799.44;;;-1.40;88.20
30618;BME280;17384;51.214;9.202;2023-04-26T01:32:44;98791.56;;;-1.22;87.11
30618;BME280;17384;51.214;9.202;2023-04-26T01:35:10;98800.25;;;-1.11;87.36
30618;BME280;17384;51.214;9.202;2023-04-26T01:37:36;98791.16;;;-1.18;87.29
30618;BME280;17384;51.214;9.202;2023-04-26T01:40:02;98803.78;;;-1.39;87.73
30618;BME280;17384;51.214;9.202;2023-04-26T01:42:30;98800.69;;;-1.44;88.33
30618;BME280;17384;51.214;9.202;2023-04-26T01:44:56;98797.44;;;-1.57;88.44
30618;BME280;17384;51.214;9.202;2023-04-26T01:47:21;98804.31;;;-1.64;88.73
30618;BME280;17384;51.214;9.202;2023-04-26T01:49:47;98804.00;;;-1.61;89.11
30618;BME280;17384;51.214;9.202;2023-04-26T01:52:12;98800.78;;;-1.75;89.11
30618;BME280;17384;51.214;9.202;2023-04-26T01:54:38;98809.63;;;-1.74;89.35
30618;BME280;17384;51.214;9.202;2023-04-26T01:57:03;98797.72;;;-1.70;89.69
30618;BME280;17384;51.214;9.202;2023-04-26T01:59:29;98802.91;;;-1.68;89.82
30618;BME280;17384;51.214;9.202;2023-04-26T02:01:54;98796.47;;;-1.66;89.89
30618;BME280;17384;51.214;9.202;2023-04-26T02:04:20;98804.31;;;-1.64;89.80
30618;BME280;17384;51.214;9.202;2023-04-26T02:09:13;98805.94;;;-1.83;90.12
30618;BME280;17384;51.214;9.202;2023-04-26T02:11:38;98798.41;;;-1.78;90.04
30618;BME280;17384;51.214;9.202;2023-04-26T02:14:04;98782.72;;;-1.81;89.75
30618;BME280;17384;51.214;9.202;2023-04-26T02:16:29;98799.25;;;-1.77;89.70
30618;BME280;17384;51.214;9.202;2023-04-26T02:18:55;98787.47;;;-1.84;89.69
30618;BME280;17384;51.214;9.202;2023-04-26T02:21:21;98784.38;;;-1.89;89.71
30618;BME280;17384;51.214;9.202;2023-04-26T02:23:46;98794.75;;;-1.86;90.16
30618;BME280;17384;51.214;9.202;2023-04-26T02:26:12;98790.53;;;-1.89;90.07
30618;BME280;17384;51.214;9.202;2023-04-26T02:28:37;98785.94;;;-1.87;90.13
30618;BME280;17384;51.214;9.202;2023-04-26T02:31:03;98788.16;;;-2.01;90.22
30618;BME280;17384;51.214;9.202;2023-04-26T02:33:28;98792.81;;;-1.94;90.11
30618;BME280;17384;51.214;9.202;2023-04-26T02:35:54;98789.09;;;-2.12;89.88
30618;BME280;17384;51.214;9.202;2023-04-26T02:38:20;98797.66;;;-2.09;90.05
30618;BME280;17384;51.214;9.202;2023-04-26T02:40:45;98795.00;;;-2.09;89.58
30618;BME280;17384;51.214;9.202;2023-04-26T02:43:11;98793.00;;;-2.16;89.88
30618;BME280;17384;51.214;9.202;2023-04-26T02:45:41;98790.47;;;-2.18;89.34
30618;BME280;17384;51.214;9.202;2023-04-26T02:48:07;98787.53;;;-2.24;89.36
30618;BME280;17384;51.214;9.202;2023-04-26T02:50:32;98779.56;;;-2.24;89.79
30618;BME280;17384;51.214;9.202;2023-04-26T02:52:58;98799.38;;;-2.38;90.04
30618;BME280;17384;51.214;9.202;2023-04-26T02:55:23;98796.56;;;-2.36;90.12
30618;BME280;17384;51.214;9.202;2023-04-26T02:57:48;98794.06;;;-2.38;90.46
30618;BME280;17384;51.214;9.202;2023-04-26T03:00:14;98789.59;;;-2.38;90.84
30618;BME280;17384;51.214;9.202;2023-04-26T03:02:39;98792.94;;;-2.35;91.00
30618;BME280;17384;51.214;9.202;2023-04-26T03:05:06;98792.09;;;-2.36;91.07
30618;BME280;17384;51.214;9.202;2023-04-26T03:07:31;98791.78;;;-2.43;91.02
30618;BME280;17384;51.214;9.202;2023-04-26T03:09:57;98804.81;;;-2.40;91.23
30618;BME280;17384;51.214;9.202;2023-04-26T03:12:22;98798.41;;;-2.37;90.99
30618;BME280;17384;51.214;9.202;2023-04-26T03:14:48;98793.38;;;-2.30;90.83
30618;BME280;17384;51.214;9.202;2023-04-26T03:17:13;98795.34;;;-2.32;90.56
30618;BME280;17384;51.214;9.202;2023-04-26T03:19:39;98799.69;;;-2.31;90.31
30618;BME280;17384;51.214;9.202;2023-04-26T03:22:04;98802.59;;;-2.34;90.21
30618;BME280;17384;51.214;9.202;2023-04-26T03:24:29;98799.34;;;-2.48;89.94
30618;BME280;17384;51.214;9.202;2023-04-26T03:26:56;98783.13;;;-2.45;90.28
30618;BME280;17384;51.214;9.202;2023-04-26T03:29:22;98798.09;;;-2.44;90.15
30618;BME280;17384;51.214;9.202;2023-04-26T03:31:47;98793.06;;;-2.47;89.55
30618;BME280;17384;51.214;9.202;2023-04-26T03:34:13;98784.38;;;-2.49;89.44
30618;BME280;17384;51.214;9.202;2023-04-26T03:36:38;98785.63;;;-2.53;89.47
30618;BME280;17384;51.214;9.202;2023-04-26T03:39:04;98782.91;;;-2.62;89.40
30618;BME280;17384;51.214;9.202;2023-04-26T03:41:30;98778.25;;;-2.70;89.46
30618;BME280;17384;51.214;9.202;2023-04-26T03:43:57;98787.91;;;-2.69;89.54
30618;BME280;17384;51.214;9.202;2023-04-26T03:46:22;98792.44;;;-2.60;89.70
30618;BME280;17384;51.214;9.202;2023-04-26T03:48:48;98783.06;;;-2.64;89.51
30618;BME280;17384;51.214;9.202;2023-04-26T03:51:13;98785.00;;;-2.66;89.66
30618;BME280;17384;51.214;9.202;2023-04-26T03:53:39;98778.97;;;-2.68;89.94
30618;BME280;17384;51.214;9.202;2023-04-26T03:56:05;98785.97;;;-2.67;90.35
30618;BME280;17384;51.214;9.202;2023-04-26T03:58:32;98777.97;;;-2.77;90.31
30618;BME280;17384;51.214;9.202;2023-04-26T04:00:57;98783.94;;;-2.84;90.32
30618;BME280;17384;51.214;9.202;2023-04-26T04:03:23;98781.72;;;-2.79;90.66
30618;BME280;17384;51.214;9.202;2023-04-26T04:05:48;98782.84;;;-2.82;90.61
30618;BME280;17384;51.214;9.202;2023-04-26T04:08:14;98783.22;;;-2.86;90.38
30618;BME280;17384;51.214;9.202;2023-04-26T04:10:40;98785.63;;;-2.83;90.76
30618;BME280;17384;51.214;9.202;2023-04-26T04:13:07;98782.97;;;-2.83;90.68
30618;BME280;17384;51.214;9.202;2023-04-26T04:15:32;98784.38;;;-2.79;90.33
30618;BME280;17384;51.214;9.202;2023-04-26T04:17:58;98787.75;;;-2.77;90.58
30618;BME280;17384;51.214;9.202;2023-04-26T04:20:24;98788.72;;;-2.78;90.28
30618;BME280;17384;51.214;9.202;2023-04-26T04:22:49;98783.22;;;-2.86;90.40
30618;BME280;17384;51.214;9.202;2023-04-26T04:25:15;98785.22;;;-2.99;90.56
30618;BME280;17384;51.214;9.202;2023-04-26T04:27:41;98780.22;;;-3.02;90.66
30618;BME280;17384;51.214;9.202;2023-04-26T04:30:09;98789.56;;;-2.98;90.89
30618;BME280;17384;51.214;9.202;2023-04-26T04:32:36;98797.06;;;-2.83;90.76
30618;BME280;17384;51.214;9.202;2023-04-26T04:35:04;98796.38;;;-2.85;90.56
30618;BME280;17384;51.214;9.202;2023-04-26T04:37:29;98786.06;;;-2.78;90.35
30618;BME280;17384;51.214;9.202;2023-04-26T04:39:58;98804.56;;;-2.67;90.76
30618;BME280;17384;51.214;9.202;2023-04-26T04:42:23;98807.66;;;-2.62;90.42
30618;BME280;17384;51.214;9.202;2023-04-26T04:44:51;98802.97;;;-2.49;90.58
30618;BME280;17384;51.214;9.202;2023-04-26T04:47:16;98791.78;;;-2.43;90.35
30618;BME280;17384;51.214;9.202;2023-04-26T04:49:42;98802.91;;;-2.28;89.94
30618;BME280;17384;51.214;9.202;2023-04-26T04:52:07;98811.47;;;-2.15;89.93
30618;BME280;17384;51.214;9.202;2023-04-26T04:54:33;98799.06;;;-2.05;89.28
30618;BME280;17384;51.214;9.202;2023-04-26T04:56:58;98800.47;;;-1.91;89.41
30618;BME280;17384;51.214;9.202;2023-04-26T04:59:24;98812.41;;;-1.76;89.00
30618;BME280;17384;51.214;9.202;2023-04-26T05:01:49;98814.09;;;-1.55;88.67
30618;BME280;17384;51.214;9.202;2023-04-26T05:04:15;98823.09;;;-1.47;87.97
30618;BME280;17384;51.214;9.202;2023-04-26T05:06:41;98826.31;;;-1.24;87.50
30618;BME280;17384;51.214;9.202;2023-04-26T05:09:07;98822.50;;;-1.02;87.30
30618;BME280;17384;51.214;9.202;2023-04-26T05:11:33;98832.31;;;-0.83;86.69
30618;BME280;17384;51.214;9.202;2023-04-26T05:13:59;98840.66;;;-0.59;86.16
30618;BME280;17384;51.214;9.202;2023-04-26T05:16:25;98828.66;;;-0.36;85.25
30618;BME280;17384;51.214;9.202;2023-04-26T05:18:50;98842.31;;;-0.11;84.94
30618;BME280;17384;51.214;9.202;2023-04-26T05:21:16;98820.72;;;0.10;83.61
30618;BME280;17384;51.214;9.202;2023-04-26T05:23:42;98839.66;;;0.34;82.58
30618;BME280;17384;51.214;9.202;2023-04-26T05:26:11;98822.47;;;0.46;82.29
30618;BME280;17384;51.214;9.202;2023-04-26T05:28:37;98833.16;;;0.64;82.30
30618;BME280;17384;51.214;9.202;2023-04-26T05:31:02;98839.78;;;0.95;81.58
30618;BME280;17384;51.214;9.202;2023-04-26T05:33:28;98842.25;;;1.32;79.22
30618;BME280;17384;51.214;9.202;2023-04-26T05:35:54;98830.72;;;1.58;77.78
30618;BME280;17384;51.214;9.202;2023-04-26T05:38:22;98846.53;;;1.77;77.21
30618;BME280;17384;51.214;9.202;2023-04-26T05:40:47;98844.81;;;2.02;76.91
30618;BME280;17384;51.214;9.202;2023-04-26T05:43:13;98846.97;;;2.32;76.13
30618;BME280;17384;51.214;9.202;2023-04-26T05:45:39;98846.34;;;2.55;75.67
30618;BME280;17384;51.214;9.202;2023-04-26T05:48:05;98855.13;;;2.73;74.59
30618;BME280;17384;51.214;9.202;2023-04-26T05:50:30;98852.81;;;2.94;74.54
30618;BME280;17384;51.214;9.202;2023-04-26T05:52:56;98854.47;;;3.12;74.26
30618;BME280;17384;51.214;9.202;2023-04-26T05:55:22;98846.09;;;3.39;73.34
30618;BME280;17384;51.214;9.202;2023-04-26T05:57:48;98851.25;;;3.65;72.59
30618;BME280;17384;51.214;9.202;2023-04-26T06:00:14;98855.41;;;3.84;71.97
30618;BME280;17384;51.214;9.202;2023-04-26T06:02:41;98858.03;;;4.08;70.99
30618;BME280;17384;51.214;9.202;2023-04-26T06:05:06;98859.88;;;4.47;69.87
30618;BME280;17384;51.214;9.202;2023-04-26T06:07:33;98855.84;;;4.82;68.83
30618;BME280;17384;51.214;9.202;2023-04-26T06:10:01;98860.88;;;5.07;68.06
30618;BME280;17384;51.214;9.202;2023-04-26T06:12:27;98860.00;;;5.30;67.76
30618;BME280;17384;51.214;9.202;2023-04-26T06:14:52;98872.53;;;5.60;67.43
30618;BME280;17384;51.214;9.202;2023-04-26T06:17:17;98877.69;;;5.85;66.14
30618;BME280;17384;51.214;9.202;2023-04-26T06:19:43;98860.56;;;6.15;65.31
30618;BME280;17384;51.214;9.202;2023-04-26T06:22:08;98865.09;;;6.29;64.56
30618;BME280;17384;51.214;9.202;2023-04-26T06:24:34;98874.59;;;6.25;65.62
30618;BME280;17384;51.214;9.202;2023-04-26T06:26:59;98870.94;;;6.48;64.26
30618;BME280;17384;51.214;9.202;2023-04-26T06:29:25;98874.19;;;6.43;64.34
30618;BME280;17384;51.214;9.202;2023-04-26T06:31:50;98862.91;;;6.69;65.31
30618;BME280;17384;51.214;9.202;2023-04-26T06:34:15;98875.69;;;7.39;62.23
30618;BME280;17384;51.214;9.202;2023-04-26T06:36:41;98877.19;;;7.69;62.04
30618;BME280;17384;51.214;9.202;2023-04-26T06:39:06;98883.13;;;7.79;62.15
30618;BME280;17384;51.214;9.202;2023-04-26T06:41:32;98883.69;;;8.03;59.89
30618;BME280;17384;51.214;9.202;2023-04-26T06:43:57;98887.97;;;8.19;58.79
30618;BME280;17384;51.214;9.202;2023-04-26T06:46:23;98898.47;;;8.07;58.96
30618;BME280;17384;51.214;9.202;2023-04-26T06:48:48;98904.72;;;7.79;60.38
30618;BME280;17384;51.214;9.202;2023-04-26T06:51:14;98903.09;;;7.36;59.53
30618;BME280;17384;51.214;9.202;2023-04-26T06:53:40;98893.84;;;7.73;60.27
30618;BME280;17384;51.214;9.202;2023-04-26T06:56:06;98899.09;;;7.10;59.29
30618;BME280;17384;51.214;9.202;2023-04-26T06:58:31;98899.50;;;6.93;59.90
30618;BME280;17384;51.214;9.202;2023-04-26T07:00:57;98896.03;;;6.99;59.66
30618;BME280;17384;51.214;9.202;2023-04-26T07:03:25;98888.72;;;7.14;60.17
30618;BME280;17384;51.214;9.202;2023-04-26T07:05:51;98890.34;;;7.51;59.90
30618;BME280;17384;51.214;9.202;2023-04-26T07:08:19;98901.13;;;7.51;59.47
30618;BME280;17384;51.214;9.202;2023-04-26T07:10:44;98898.97;;;8.17;58.71
30618;BME280;17384;51.214;9.202;2023-04-26T07:13:10;98887.59;;;8.56;57.72
30618;BME280;17384;51.214;9.202;2023-04-26T07:15:35;98911.03;;;8.42;55.91
30618;BME280;17384;51.214;9.202;2023-04-26T07:18:01;98897.53;;;8.21;56.23
30618;BME280;17384;51.214;9.202;2023-04-26T07:20:26;98911.84;;;8.84;55.21
30618;BME280;17384;51.214;9.202;2023-04-26T07:22:52;98907.25;;;9.52;53.94
30618;BME280;17384;51.214;9.202;2023-04-26T07:25:17;98918.50;;;9.49;52.59
30618;BME280;17384;51.214;9.202;2023-04-26T07:27:43;98912.56;;;9.12;54.23
30618;BME280;17384;51.214;9.202;2023-04-26T07:30:08;98907.31;;;8.22;54.91
30618;BME280;17384;51.214;9.202;2023-04-26T07:32:35;98905.16;;;8.73;53.80
30618;BME280;17384;51.214;9.202;2023-04-26T07:35:05;98910.16;;;8.83;52.29
30618;BME280;17384;51.214;9.202;2023-04-26T07:37:39;98920.69;;;8.30;54.75
30618;BME280;17384;51.214;9.202;2023-04-26T07:40:05;98908.09;;;7.60;55.00
30618;BME280;17384;51.214;9.202;2023-04-26T07:42:32;98915.59;;;8.48;53.51
30618;BME280;17384;51.214;9.202;2023-04-26T07:44:58;98913.34;;;8.24;52.32
30618;BME280;17384;51.214;9.202;2023-04-26T07:47:24;98906.19;;;8.10;51.96
30618;BME280;17384;51.214;9.202;2023-04-26T07:49:52;98900.50;;;7.49;53.67
30618;BME280;17384;51.214;9.202;2023-04-26T07:52:18;98908.34;;;8.49;51.78
30618;BME280;17384;51.214;9.202;2023-04-26T07:54:44;98888.81;;;9.08;51.35
30618;BME280;17384;51.214;9.202;2023-04-26T07:57:10;98895.69;;;9.10;48.38
30618;BME280;17384;51.214;9.202;2023-04-26T07:59:36;98913.19;;;9.01;50.83
30618;BME280;17384;51.214;9.202;2023-04-26T08:02:01;98906.31;;;8.58;52.06
30618;BME280;17384;51.214;9.202;2023-04-26T08:04:31;98903.06;;;8.69;52.94
30618;BME280;17384;51.214;9.202;2023-04-26T08:07:00;98904.66;;;8.29;53.07
30618;BME280;17384;51.214;9.202;2023-04-26T08:09:27;98900.03;;;7.67;52.69
30618;BME280;17384;51.214;9.202;2023-04-26T08:11:53;98896.25;;;7.19;52.78
30618;BME280;17384;51.214;9.202;2023-04-26T08:14:19;98899.56;;;7.35;52.28
30618;BME280;17384;51.214;9.202;2023-04-26T08:16:44;98888.81;;;6.85;54.18
30618;BME280;17384;51.214;9.202;2023-04-26T08:19:10;98902.09;;;6.86;53.66
30618;BME280;17384;51.214;9.202;2023-04-26T08:21:35;98908.25;;;7.16;52.85
30618;BME280;17384;51.214;9.202;2023-04-26T08:24:01;98914.25;;;8.31;52.43
30618;BME280;17384;51.214;9.202;2023-04-26T08:26:27;98906.22;;;9.53;48.81
30618;BME280;17384;51.214;9.202;2023-04-26T08:28:52;98899.03;;;9.12;46.95
30618;BME280;17384;51.214;9.202;2023-04-26T08:31:18;98900.16;;;8.70;49.99
30618;BME280;17384;51.214;9.202;2023-04-26T08:33:43;98909.41;;;8.27;49.33
30618;BME280;17384;51.214;9.202;2023-04-26T08:36:08;98907.66;;;7.85;51.69
30618;BME280;17384;51.214;9.202;2023-04-26T08:38:34;98912.19;;;7.56;52.47
30618;BME280;17384;51.214;9.202;2023-04-26T08:41:01;98904.50;;;7.32;53.67
30618;BME280;17384;51.214;9.202;2023-04-26T08:43:28;98922.63;;;7.59;52.25
30618;BME280;17384;51.214;9.202;2023-04-26T08:45:54;98918.56;;;7.48;51.58
30618;BME280;17384;51.214;9.202;2023-04-26T08:48:20;98913.75;;;7.65;51.62
30618;BME280;17384;51.214;9.202;2023-04-26T08:50:46;98904.22;;;7.48;51.22
30618;BME280;17384;51.214;9.202;2023-04-26T08:53:16;98911.03;;;7.93;50.72
30618;BME280;17384;51.214;9.202;2023-04-26T08:55:47;98903.44;;;8.66;51.35
30618;BME280;17384;51.214;9.202;2023-04-26T08:58:13;98907.47;;;9.57;46.74
30618;BME280;17384;51.214;9.202;2023-04-26T09:00:42;98908.50;;;10.15;47.57
30618;BME280;17384;51.214;9.202;2023-04-26T09:03:09;98913.13;;;10.08;46.01
30618;BME280;17384;51.214;9.202;2023-04-26T09:05:34;98910.16;;;9.64;45.05
30618;BME280;17384;51.214;9.202;2023-04-26T09:08:00;98913.06;;;9.42;46.28
30618;BME280;17384;51.214;9.202;2023-04-26T09:10:28;98912.69;;;8.85;46.77
30618;BME280;17384;51.214;9.202;2023-04-26T09:12:55;98915.84;;;8.19;47.93
30618;BME280;17384;51.214;9.202;2023-04-26T09:15:21;98910.84;;;8.23;47.99
30618;BME280;17384;51.214;9.202;2023-04-26T09:17:48;98913.88;;;8.06;48.78
30618;BME280;17384;51.214;9.202;2023-04-26T09:20:21;98919.00;;;8.29;48.90
30618;BME280;17384;51.214;9.202;2023-04-26T09:22:51;98900.56;;;8.33;49.62
30618;BME280;17384;51.214;9.202;2023-04-26T09:25:19;98901.50;;;8.25;49.32
30618;BME280;17384;51.214;9.202;2023-04-26T09:27:50;98895.91;;;8.27;50.79
30618;BME280;17384;51.214;9.202;2023-04-26T09:30:16;98906.19;;;8.10;48.80
30618;BME280;17384;51.214;9.202;2023-04-26T09:35:35;98910.38;;;8.40;47.48
30618;BME280;17384;51.214;9.202;2023-04-26T09:38:03;98916.03;;;8.52;48.47
30618;BME280;17384;51.214;9.202;2023-04-26T09:40:31;98899.97;;;8.85;46.82
30618;BME280;17384;51.214;9.202;2023-04-26T09:42:58;98908.34;;;8.90;46.54
30618;BME280;17384;51.214;9.202;2023-04-26T09:45:25;98908.63;;;8.61;48.70
30618;BME280;17384;51.214;9.202;2023-04-26T09:47:51;98902.72;;;8.92;46.58
30618;BME280;17384;51.214;9.202;2023-04-26T09:50:27;98904.13;;;8.81;46.56
30618;BME280;17384;51.214;9.202;2023-04-26T09:52:54;98905.47;;;8.98;46.96
30618;BME280;17384;51.214;9.202;2023-04-26T09:55:29;98899.66;;;9.14;46.28
30618;BME280;17384;51.214;9.202;2023-04-26T09:57:56;98897.63;;;9.36;44.93
30618;BME280;17384;51.214;9.202;2023-04-26T10:00:23;98899.28;;;9.31;46.28
30618;BME280;17384;51.214;9.202;2023-04-26T10:02:51;98901.44;;;8.88;46.04
30618;BME280;17384;51.214;9.202;2023-04-26T10:05:17;98894.94;;;8.69;47.10
30618;BME280;17384;51.214;9.202;2023-04-26T10:07:44;98902.38;;;8.60;45.92
30618;BME280;17384;51.214;9.202;2023-04-26T10:10:11;98898.56;;;8.89;44.94
30618;BME280;17384;51.214;9.202;2023-04-26T10:12:36;98891.41;;;9.49;44.11
30618;BME280;17384;51.214;9.202;2023-04-26T10:15:03;98896.03;;;9.55;42.21
30618;BME280;17384;51.214;9.202;2023-04-26T10:17:28;98898.41;;;9.10;45.31
30618;BME280;17384;51.214;9.202;2023-04-26T10:19:56;98901.63;;;8.73;45.98
30618;BME280;17384;51.214;9.202;2023-04-26T10:22:26;98893.34;;;8.88;46.95
30618;BME280;17384;51.214;9.202;2023-04-26T10:24:53;98898.19;;;9.05;45.87
30618;BME280;17384;51.214;9.202;2023-04-26T10:30:14;98891.53;;;9.08;44.28
30618;BME280;17384;51.214;9.202;2023-04-26T10:35:18;98879.13;;;8.72;46.34
30618;BME280;17384;51.214;9.202;2023-04-26T10:45:34;98889.94;;;10.12;43.45
30618;BME280;17384;51.214;9.202;2023-04-26T10:48:17;98890.38;;;10.09;42.88
30618;BME280;17384;51.214;9.202;2023-04-26T10:53:24;98879.16;;;8.79;42.87
30618;BME280;17384;51.214;9.202;2023-04-26T10:55:50;98882.97;;;8.22;43.71
30618;BME280;17384;51.214;9.202;2023-04-26T10:58:33;98881.69;;;8.11;45.89
30618;BME280;17384;51.214;9.202;2023-04-26T11:01:14;98881.25;;;8.36;45.87
30618;BME280;17384;51.214;9.202;2023-04-26T11:04:11;98878.38;;;8.51;46.62
30618;BME280;17384;51.214;9.202;2023-04-26T11:06:52;98872.97;;;8.92;43.75
30618;BME280;17384;51.214;9.202;2023-04-26T11:09:37;98872.66;;;9.61;41.30
30618;BME280;17384;51.214;9.202;2023-04-26T11:12:04;98865.16;;;10.02;42.64
30618;BME280;17384;51.214;9.202;2023-04-26T11:14:32;98874.97;;;9.50;43.88
30618;BME280;17384;51.214;9.202;2023-04-26T11:16:57;98872.69;;;9.80;42.19
30618;BME280;17384;51.214;9.202;2023-04-26T11:19:23;98875.59;;;9.99;43.06
30618;BME280;17384;51.214;9.202;2023-04-26T11:21:51;98866.19;;;10.08;44.55
30618;BME280;17384;51.214;9.202;2023-04-26T11:24:24;98878.09;;;10.07;44.21
30618;BME280;17384;51.214;9.202;2023-04-26T11:26:52;98877.88;;;9.42;45.55
30618;BME280;17384;51.214;9.202;2023-04-26T11:29:19;98874.31;;;9.29;45.11
30618;BME280;17384;51.214;9.202;2023-04-26T11:31:54;98880.59;;;9.75;44.71
30618;BME280;17384;51.214;9.202;2023-04-26T11:34:33;98877.03;;;10.21;42.65
30618;BME280;17384;51.214;9.202;2023-04-26T11:37:03;98878.72;;;10.02;42.31
30618;BME280;17384;51.214;9.202;2023-04-26T11:39:35;98876.41;;;9.93;44.16
30618;BME280;17384;51.214;9.202;2023-04-26T11:42:08;98877.47;;;9.72;43.15
30618;BME280;17384;51.214;9.202;2023-04-26T11:44:34;98874.75;;;9.85;41.42
30618;BME280;17384;51.214;9.202;2023-04-26T11:47:00;98881.84;;;9.93;42.20
30618;BME280;17384;51.214;9.202;2023-04-26T11:49:28;98878.50;;;9.64;43.79
30618;BME280;17384;51.214;9.202;2023-04-26T11:51:54;98875.94;;;10.48;44.97
30618;BME280;17384;51.214;9.202;2023-04-26T11:54:28;98866.59;;;10.18;42.29
30618;BME280;17384;51.214;9.202;2023-04-26T11:56:59;98874.66;;;10.58;42.56
30618;BME280;17384;51.214;9.202;2023-04-26T11:59:29;98881.34;;;11.06;41.05
30618;BME280;17384;51.214;9.202;2023-04-26T12:01:58;98883.63;;;11.47;40.82
30618;BME280;17384;51.214;9.202;2023-04-26T12:04:30;98875.94;;;11.00;40.23
30618;BME280;17384;51.214;9.202;2023-04-26T12:06:56;98874.59;;;10.77;41.26
30618;BME280;17384;51.214;9.202;2023-04-26T12:09:26;98878.22;;;10.51;41.51
30618;BME280;17384;51.214;9.202;2023-04-26T12:12:03;98878.31;;;10.90;40.02
30618;BME280;17384;51.214;9.202;2023-04-26T12:14:39;98873.75;;;10.77;41.29
30618;BME280;17384;51.214;9.202;2023-04-26T12:17:06;98872.47;;;10.86;41.15
30618;BME280;17384;51.214;9.202;2023-04-26T12:19:32;98870.81;;;10.85;38.94
30618;BME280;17384;51.214;9.202;2023-04-26T12:21:58;98881.47;;;10.80;41.91
30618;BME280;17384;51.214;9.202;2023-04-26T12:24:25;98879.97;;;10.91;40.25
30618;BME280;17384;51.214;9.202;2023-04-26T12:26:51;98872.81;;;10.96;40.70
30618;BME280;17384;51.214;9.202;2023-04-26T12:29:17;98876.97;;;10.99;39.57
30618;BME280;17384;51.214;9.202;2023-04-26T12:31:42;98876.53;;;10.64;42.09
30618;BME280;17384;51.214;9.202;2023-04-26T12:34:08;98871.31;;;10.56;40.95
30618;BME280;17384;51.214;9.202;2023-04-26T12:36:33;98868.16;;;11.10;39.70
30618;BME280;17384;51.214;9.202;2023-04-26T12:38:59;98855.94;;;11.26;38.96
30618;BME280;17384;51.214;9.202;2023-04-26T12:41:27;98854.00;;;10.57;40.39
30618;BME280;17384;51.214;9.202;2023-04-26T12:43:53;98858.31;;;10.77;38.63
30618;BME280;17384;51.214;9.202;2023-04-26T12:46:19;98854.31;;;10.80;37.01
30618;BME280;17384;51.214;9.202;2023-04-26T12:48:45;98862.72;;;11.16;39.50
30618;BME280;17384;51.214;9.202;2023-04-26T12:51:11;98860.22;;;11.46;37.54
30618;BME280;17384;51.214;9.202;2023-04-26T12:53:36;98855.28;;;11.62;39.78
30618;BME280;17384;51.214;9.202;2023-04-26T12:56:02;98863.78;;;11.47;40.06
30618;BME280;17384;51.214;9.202;2023-04-26T12:58:28;98864.94;;;11.58;39.37
30618;BME280;17384;51.214;9.202;2023-04-26T13:00:53;98870.88;;;11.48;38.51
30618;BME280;17384;51.214;9.202;2023-04-26T13:03:18;98856.00;;;11.19;39.06
30618;BME280;17384;51.214;9.202;2023-04-26T13:05:44;98848.56;;;11.01;38.79
30618;BME280;17384;51.214;9.202;2023-04-26T13:08:09;98859.09;;;10.91;39.40
30618;BME280;17384;51.214;9.202;2023-04-26T13:10:35;98876.69;;;11.20;40.85
30618;BME280;17384;51.214;9.202;2023-04-26T13:13:00;98859.47;;;11.33;40.76
30618;BME280;17384;51.214;9.202;2023-04-26T13:15:26;98868.47;;;11.27;40.44
30618;BME280;17384;51.214;9.202;2023-04-26T13:17:54;98864.81;;;11.46;40.35
30618;BME280;17384;51.214;9.202;2023-04-26T13:20:19;98876.34;;;11.98;40.62
30618;BME280;17384;51.214;9.202;2023-04-26T13:22:45;98872.91;;;11.84;39.20